KRCR/RCR METAR and TAF weather

Enter ICAO airport designator
Station Type Date Time Source
KRCR METAR 2022/01/19 19:35 UTC NOAA

KRCR 191935Z AUTO 31012G19KT 10SM SCT023 M01/M07 A3005 RMK AO2


Station Type Date Time Source
KRCR Decoded METAR 2022/01/19 19:35 UTC NOAA

Station name not available
Jan 19, 2022 - 02:35 PM EST / 2022.01.19 1935 UTC
Wind: from the NW (310 degrees) at 14 MPH (12 KT) gusting to 22 MPH (19 KT):0
Visibility: 10 mile(s):0
Sky conditions: partly cloudy
Temperature: 30 F (-1 C)
Windchill: 19 F (-7 C):1
Dew Point: 19 F (-7 C)
Relative Humidity: 63%
Pressure (altimeter): 30.05 in. Hg (1017 hPa)
ob: KRCR 191935Z AUTO 31012G19KT 10SM SCT023 M01/M07 A3005 RMK AO2
cycle: 19

Station Type Date Time Source
KRCR TAF UTC NOAA

Error!

Example: see airport list